Time;durP1;ratioP1;P1;durP2;ratioP2;P2;SDS_P1;SDS_P2;PMS_P1;PMS_P2;Temp;Humidity;BMP_temperature;BMP_pressure;BME280_temperature;BME280_humidity;BME280_pressure;Samples;Min_cycle;Max_cycle;Signal;HPM_P1;HPM_P2
2021/07/06 00:00:39;;;;;;;1.00;0.90;;;19.20;99.90;;;18.55;100.00;99991.88;3499209;39;102284;-83
2021/07/06 00:03:06;;;;;;;1.23;1.13;;;18.30;99.90;;;18.49;100.00;99990.06;3467156;40;100207;-83
2021/07/06 00:05:33;;;;;;;1.00;0.90;;;18.30;99.90;;;18.42;100.00;100000.09;3499004;39;103283;-82
2021/07/06 00:08:01;;;;;;;1.20;1.13;;;18.20;99.90;;;18.41;100.00;100012.00;3499150;39;104183;-83
2021/07/06 00:10:28;;;;;;;1.38;0.80;;;18.20;99.90;;;18.40;100.00;100006.78;3466733;40;100123;-83
2021/07/06 00:12:55;;;;;;;0.70;0.70;;;18.20;99.90;;;18.43;100.00;100009.03;3465415;40;99976;-82
2021/07/06 00:15:24;;;;;;;0.85;0.85;;;18.50;99.90;;;18.42;100.00;100008.22;3466191;40;101285;-84
2021/07/06 00:17:54;;;;;;;0.70;0.52;;;18.60;99.90;;;18.45;100.00;100010.50;3466604;40;100697;-82
2021/07/06 00:20:22;;;;;;;1.00;0.90;;;18.10;99.90;;;18.42;100.00;100019.06;3499704;39;102475;-84
2021/07/06 00:22:50;;;;;;;1.17;1.02;;;18.10;99.90;;;18.34;100.00;100013.06;3467002;40;100522;-83
2021/07/06 00:25:17;;;;;;;1.85;1.02;;;18.50;99.90;;;18.37;100.00;100015.34;3499168;39;103349;-83
2021/07/06 00:27:45;;;;;;;1.40;1.30;;;18.00;99.90;;;18.34;100.00;100024.72;3484113;39;101121;-82
2021/07/06 00:30:13;;;;;;;1.90;1.55;;;18.50;99.90;;;18.32;100.00;100018.69;3486238;39;99863;-83
2021/07/06 00:32:40;;;;;;;2.15;1.27;;;18.00;99.90;;;18.25;100.00;100012.47;3501350;39;100092;-82
2021/07/06 00:35:10;;;;;;;0.95;0.80;;;17.90;99.90;;;18.27;100.00;100013.94;3498791;39;103102;-82
2021/07/06 00:37:37;;;;;;;1.05;0.90;;;17.90;99.90;;;18.21;100.00;100014.78;3467315;40;100891;-87
2021/07/06 00:40:07;;;;;;;0.65;0.65;;;17.90;99.90;;;18.20;100.00;100017.69;3466046;40;100892;-83
2021/07/06 00:42:35;;;;;;;2.05;0.98;;;17.80;99.90;;;18.17;100.00;100018.16;3467169;40;99873;-84
2021/07/06 00:45:02;;;;;;;0.82;0.82;;;17.80;99.90;;;18.15;100.00;100009.41;3498481;39;103084;-83
2021/07/06 00:47:34;;;;;;;2.20;1.58;;;17.80;99.90;;;18.13;100.00;100012.31;3466125;40;101405;-83
2021/07/06 00:50:04;;;;;;;1.35;1.10;;;18.20;99.90;;;18.10;100.00;100007.31;3467561;40;100053;-82
2021/07/06 00:52:32;;;;;;;2.45;1.08;;;17.70;99.90;;;18.10;100.00;100004.63;3499359;39;100292;-83
2021/07/06 00:54:59;;;;;;;1.30;1.10;;;18.40;99.90;;;18.01;100.00;100007.78;3466446;40;101273;-81
2021/07/06 00:57:30;;;;;;;2.45;1.40;;;18.70;99.90;;;17.94;100.00;100011.31;3498478;39;102958;-81
2021/07/06 01:00:04;;;;;;;1.33;1.00;;;17.70;99.90;;;17.90;100.00;100012.81;3508702;39;100473;-82
2021/07/06 01:02:31;;;;;;;1.45;1.20;;;17.60;99.90;;;17.88;100.00;100016.75;3517020;39;100311;-82
2021/07/06 01:04:58;;;;;;;1.23;1.13;;;17.60;99.90;;;17.85;100.00;100012.59;3516999;39;100761;-82
2021/07/06 01:07:25;;;;;;;2.03;1.42;;;17.50;99.90;;;17.83;100.00;100016.56;3517263;39;100624;-84
2021/07/06 01:09:54;;;;;;;1.60;1.20;;;18.30;99.90;;;17.84;100.00;100010.09;3518264;39;100499;-82
2021/07/06 01:12:22;;;;;;;2.50;1.42;;;17.50;99.90;;;17.81;100.00;100005.94;3517256;39;100023;-82
2021/07/06 01:14:49;;;;;;;1.30;1.20;;;17.50;99.90;;;17.74;100.00;100007.00;3508652;39;101088;-82
2021/07/06 01:17:16;;;;;;;1.20;1.10;;;17.40;99.90;;;17.73;100.00;100011.59;3511902;39;101305;-83
2021/07/06 01:19:43;;;;;;;2.28;1.65;;;17.40;99.90;;;17.66;100.00;100004.53;3531662;39;99532;-84
2021/07/06 01:22:26;;;;;;;1.17;1.10;;;17.40;99.90;;;17.72;100.00;100011.78;3522735;39;100097;-83
2021/07/06 01:24:54;;;;;;;0.93;0.93;;;17.30;99.90;;;17.63;100.00;100003.06;3507130;39;101854;-82
2021/07/06 01:27:21;;;;;;;1.85;1.60;;;17.10;99.90;;;17.59;100.00;100015.31;3518218;39;100907;-82
2021/07/06 01:29:48;;;;;;;1.13;0.93;;;17.30;99.90;;;17.57;100.00;100006.56;3508510;39;102681;-82
2021/07/06 01:32:16;;;;;;;1.25;1.08;;;17.30;99.90;;;17.50;100.00;100009.31;3519252;39;99910;-83
2021/07/06 01:34:43;;;;;;;1.00;0.90;;;17.20;99.90;;;17.44;100.00;100017.41;3517180;39;101552;-84
2021/07/06 01:37:16;;;;;;;1.25;1.10;;;17.20;99.90;;;17.39;100.00;100011.81;3516599;39;100848;-83
2021/07/06 01:39:44;;;;;;;1.00;0.82;;;17.90;99.90;;;17.32;100.00;100014.50;3518093;39;100886;-82
2021/07/06 01:42:11;;;;;;;2.42;1.30;;;16.50;99.90;;;17.29;100.00;100027.63;3515739;39;100302;-81
2021/07/06 01:44:38;;;;;;;1.98;1.17;;;17.10;99.90;;;17.35;100.00;100016.78;3506404;39;102129;-84
2021/07/06 01:47:05;;;;;;;1.52;1.17;;;17.10;99.90;;;17.14;100.00;100017.84;3517640;39;101410;-82
2021/07/06 01:49:33;;;;;;;1.75;1.13;;;17.00;99.90;;;17.16;100.00;100028.44;3517998;39;100517;-83
2021/07/06 01:52:01;;;;;;;1.77;1.52;;;17.70;99.90;;;17.14;100.00;100028.66;3518540;39;99963;-83
2021/07/06 01:54:29;;;;;;;2.80;1.25;;;17.00;99.90;;;17.23;100.00;100026.56;3517845;39;101127;-84
2021/07/06 01:56:56;;;;;;;1.55;1.20;;;17.80;99.90;;;17.15;100.00;100026.78;3518514;39;101174;-84
2021/07/06 01:59:23;;;;;;;1.30;1.20;;;16.90;99.90;;;17.17;100.00;100022.00;3518551;39;100912;-84
2021/07/06 02:01:51;;;;;;;1.35;1.25;;;16.90;99.90;;;17.12;100.00;100019.09;3516858;39;100351;-82
2021/07/06 02:04:18;;;;;;;1.02;0.95;;;16.80;99.90;;;17.05;100.00;100015.56;3517757;39;100880;-82
2021/07/06 02:06:45;;;;;;;1.40;1.00;;;16.80;99.90;;;17.01;100.00;100025.94;3508338;39;102979;-83
2021/07/06 02:09:12;;;;;;;1.30;1.20;;;16.80;99.90;;;16.96;100.00;100023.00;3507440;39;102438;-81
2021/07/06 02:11:44;;;;;;;1.35;0.85;;;16.70;99.90;;;17.11;100.00;100022.81;3533545;39;99858;-82
2021/07/06 02:14:11;;;;;;;1.38;1.27;;;16.70;99.90;;;16.97;100.00;100013.88;3529252;39;100088;-81
2021/07/06 02:16:40;;;;;;;1.20;1.05;;;17.00;99.90;;;16.90;100.00;100010.34;3517922;39;101509;-82
2021/07/06 02:19:07;;;;;;;1.95;1.40;;;16.60;99.90;;;16.75;100.00;100020.47;3518124;39;101309;-83
2021/07/06 02:21:34;;;;;;;1.02;0.93;;;17.00;99.90;;;16.73;100.00;100022.56;3520275;39;100178;-83
2021/07/06 02:24:02;;;;;;;1.40;1.30;;;16.60;99.90;;;16.64;100.00;100030.03;3519810;39;101153;-84
2021/07/06 02:26:29;;;;;;;1.65;1.08;;;17.60;99.90;;;16.60;100.00;100036.00;3519270;39;101512;-81
2021/07/06 02:28:57;;;;;;;1.85;1.35;;;16.50;99.90;;;16.62;100.00;100037.50;3518889;39;100483;-83
2021/07/06 02:31:24;;;;;;;1.90;1.23;;;16.40;99.90;;;16.67;100.00;100039.59;3518682;39;100175;-83
2021/07/06 02:33:51;;;;;;;0.95;0.85;;;16.40;99.90;;;16.56;100.00;100041.00;3519036;39;101415;-82
2021/07/06 02:36:18;;;;;;;1.35;1.17;;;16.40;99.90;;;16.70;100.00;100036.47;3509385;39;103148;-82
2021/07/06 02:38:45;;;;;;;1.88;1.30;;;16.30;99.90;;;16.57;100.00;100042.63;3507747;39;102911;-83
2021/07/06 02:41:12;;;;;;;2.03;1.48;;;17.40;99.90;;;16.53;100.00;100039.53;3518410;39;100364;-81
2021/07/06 02:43:39;;;;;;;1.25;1.15;;;16.30;99.90;;;16.45;100.00;100041.53;3516568;39;103130;-83
2021/07/06 02:46:08;;;;;;;1.17;1.08;;;16.30;99.90;;;16.47;100.00;100042.19;3517969;39;101323;-84
2021/07/06 02:48:35;;;;;;;5.47;1.58;;;16.20;99.90;;;16.39;100.00;100045.06;3509068;39;102624;-82
2021/07/06 02:51:02;;;;;;;2.42;1.20;;;16.20;99.90;;;16.37;100.00;100042.56;3518557;39;100279;-82
2021/07/06 02:53:29;;;;;;;2.03;1.50;;;16.00;99.90;;;16.39;100.00;100048.59;3521443;39;103096;-83
2021/07/06 02:55:56;;;;;;;1.50;1.40;;;16.10;99.90;;;16.40;100.00;100052.13;3534306;39;100303;-82
2021/07/06 02:58:23;;;;;;;3.22;1.20;;;16.10;99.90;;;16.40;100.00;100054.84;3519115;39;100844;-82
2021/07/06 03:00:50;;;;;;;2.35;1.55;;;16.10;99.90;;;16.34;100.00;100042.13;3519246;39;100060;-84
2021/07/06 03:03:18;;;;;;;2.28;1.38;;;16.10;99.90;;;16.36;100.00;100042.75;3508473;39;102121;-84
2021/07/06 03:05:45;;;;;;;1.83;1.30;;;16.00;99.90;;;16.41;100.00;100046.53;3517991;39;101318;-81
2021/07/06 03:08:12;;;;;;;2.40;1.30;;;16.00;99.90;;;16.51;100.00;100052.38;3517373;39;100976;-83
2021/07/06 03:10:40;;;;;;;1.90;1.70;;;16.00;99.90;;;16.36;100.00;100049.00;3517481;39;100206;-83
2021/07/06 03:13:09;;;;;;;2.95;1.73;;;16.80;99.90;;;16.42;100.00;100047.38;3518986;39;100913;-82
2021/07/06 03:15:37;;;;;;;1.50;1.35;;;16.00;99.90;;;16.44;100.00;100043.41;3518034;39;100764;-83
2021/07/06 03:18:06;;;;;;;1.58;1.48;;;16.00;99.90;;;16.37;100.00;100042.56;3517430;39;100922;-83
2021/07/06 03:20:35;;;;;;;1.35;1.25;;;15.80;99.90;;;16.28;100.00;100042.94;3518153;39;100182;-82
2021/07/06 03:23:04;;;;;;;1.35;1.25;;;16.20;99.90;;;16.26;100.00;100032.34;3518639;39;101354;-82
2021/07/06 03:25:33;;;;;;;2.33;1.58;;;15.90;99.90;;;16.27;100.00;100044.81;3517439;39;101666;-81
2021/07/06 03:28:01;;;;;;;1.98;1.60;;;15.90;99.90;;;16.33;100.00;100035.88;3506235;39;102544;-82
2021/07/06 03:30:32;;;;;;;1.77;1.40;;;15.90;99.90;;;16.33;100.00;100035.88;3517899;39;100429;-82
2021/07/06 03:33:01;;;;;;;3.63;1.55;;;15.90;99.90;;;16.33;100.00;100035.88;3518713;39;101287;-83
2021/07/06 03:35:29;;;;;;;1.63;1.50;;;15.90;99.90;;;16.36;100.00;100042.75;3523889;39;101274;-84
2021/07/06 03:37:59;;;;;;;2.08;1.63;;;17.00;99.90;;;16.45;100.00;100044.25;3517933;39;100328;-83
2021/07/06 03:40:28;;;;;;;2.13;1.27;;;15.90;99.90;;;16.58;100.00;100043.47;3508566;39;99985;-84
2021/07/06 03:42:56;;;;;;;1.13;1.02;;;14.90;99.90;;;16.76;100.00;100041.06;3507914;39;102667;-83
2021/07/06 03:45:24;;;;;;;1.65;1.33;;;17.00;99.90;;;16.99;100.00;100029.88;3508276;39;101645;-83
2021/07/06 03:47:52;;;;;;;1.27;1.10;;;15.90;99.90;;;17.04;100.00;100022.00;3507822;39;100620;-82
2021/07/06 03:50:23;;;;;;;1.50;1.30;;;16.00;99.90;;;17.07;100.00;100011.59;3508818;39;100119;-83
2021/07/06 03:52:54;;;;;;;1.25;1.15;;;16.00;99.90;;;17.20;100.00;100016.16;3510302;39;100739;-82
2021/07/06 03:55:23;;;;;;;2.50;1.17;;;17.20;99.90;;;17.30;100.00;100004.97;3509264;39;101300;-83
2021/07/06 03:57:51;;;;;;;1.58;1.48;;;17.10;99.90;;;17.23;100.00;100005.78;3507278;39;102358;-83
2021/07/06 04:00:22;;;;;;;2.15;1.58;;;16.50;99.90;;;17.29;100.00;99997.88;3498469;39;100218;-84
2021/07/06 04:02:49;;;;;;;1.67;1.40;;;16.20;99.90;;;17.37;100.00;99995.78;3517783;39;100978;-82
2021/07/06 04:05:17;;;;;;;1.80;1.40;;;16.20;99.90;;;17.28;100.00;99991.63;3517944;39;101338;-82
2021/07/06 04:07:46;;;;;;;1.45;1.30;;;16.30;99.90;;;17.51;100.00;99992.03;3508172;39;102275;-84
2021/07/06 04:10:17;;;;;;;2.22;1.48;;;16.40;99.90;;;17.80;100.00;99985.31;3519256;39;100117;-84
2021/07/06 04:12:47;;;;;;;3.13;1.65;;;16.40;99.90;;;18.02;100.00;99982.38;3507580;39;101904;-83
2021/07/06 04:15:15;;;;;;;0.95;0.88;;;16.50;99.90;;;18.26;100.00;99976.22;3519601;39;101420;-88
2021/07/06 04:17:43;;;;;;;2.72;1.05;;;16.60;99.90;;;18.39;100.00;99968.03;3533610;39;100002;-83
2021/07/06 04:20:13;;;;;;;1.52;1.23;;;16.70;99.90;;;18.81;100.00;99968.41;3508087;39;100009;-82
2021/07/06 04:22:41;;;;;;;1.30;1.20;;;16.80;99.90;;;18.64;100.00;99955.41;3518458;39;101190;-82
2021/07/06 04:25:10;;;;;;;2.65;1.17;;;16.90;99.90;;;18.91;100.00;99950.63;3510092;39;103219;-81
2021/07/06 04:27:37;;;;;;;0.98;0.88;;;17.10;99.90;;;19.17;100.00;99943.31;3508879;39;102008;-83
2021/07/06 04:30:08;;;;;;;2.67;1.40;;;17.20;99.90;;;19.28;100.00;99940.72;3508856;39;100097;-82
2021/07/06 04:32:36;;;;;;;1.90;1.15;;;17.30;99.90;;;18.82;100.00;99935.69;3520404;39;101779;-83
2021/07/06 04:35:04;;;;;;;0.93;0.82;;;17.50;99.90;;;18.75;100.00;99934.91;3509208;39;101968;-85
2021/07/06 04:37:32;;;;;;;2.45;1.02;;;17.60;99.90;;;18.98;100.00;99934.31;3507972;39;103174;-81
2021/07/06 04:39:59;;;;;;;2.25;1.08;;;17.70;99.90;;;19.29;100.00;99933.38;3508675;39;100424;-82
2021/07/06 04:42:26;;;;;;;1.20;0.98;;;17.80;99.90;;;19.34;100.00;99933.56;3517498;39;100994;-82
2021/07/06 04:44:53;;;;;;;1.10;1.02;;;17.90;99.90;;;19.58;100.00;99918.31;3517241;39;100965;-81
2021/07/06 04:47:22;;;;;;;1.60;1.25;;;18.10;99.90;;;19.61;100.00;99916.00;3518295;39;100631;-84
2021/07/06 04:49:49;;;;;;;1.70;1.05;;;19.40;99.90;;;19.70;100.00;99908.38;3507631;39;100046;-82
2021/07/06 04:52:17;;;;;;;0.63;0.57;;;18.30;99.90;;;19.95;100.00;99906.38;3518594;39;101214;-83
2021/07/06 04:54:44;;;;;;;1.85;1.30;;;19.30;99.90;;;19.98;100.00;99905.94;3533283;39;101259;-81
2021/07/06 04:57:11;;;;;;;1.00;0.88;;;18.60;99.90;;;19.99;100.00;99909.47;3531343;39;99962;-83
2021/07/06 04:59:43;;;;;;;1.15;0.98;;;18.80;99.90;;;20.04;100.00;99906.91;3501289;39;100096;-82
2021/07/06 05:02:10;;;;;;;1.38;0.70;;;18.90;99.90;;;20.35;100.00;99901.28;3466354;40;100596;-81
2021/07/06 05:04:39;;;;;;;1.20;1.10;;;19.10;99.90;;;20.31;100.00;99901.94;3498926;39;103306;-82
2021/07/06 05:07:06;;;;;;;0.80;0.68;;;19.20;99.90;;;20.74;100.00;99896.31;3465192;40;100525;-82
2021/07/06 05:09:33;;;;;;;1.33;0.68;;;19.30;99.90;;;20.62;100.00;99896.28;3468029;40;100014;-84
2021/07/06 05:12:00;;;;;;;1.20;1.05;;;19.50;99.90;;;20.96;100.00;99900.13;3466432;40;101245;-82
2021/07/06 05:14:27;;;;;;;0.88;0.88;;;19.60;99.90;;;20.95;100.00;99901.19;3465700;40;101405;-83
2021/07/06 05:16:55;;;;;;;1.02;0.70;;;19.70;99.90;;;20.87;100.00;99895.28;3469093;40;100373;-83
2021/07/06 05:19:22;;;;;;;1.63;0.80;;;19.90;99.90;;;21.02;100.00;99898.34;3466476;40;100142;-82
2021/07/06 05:21:50;;;;;;;0.68;0.57;;;20.00;99.90;;;21.06;100.00;99896.81;3498528;39;101619;-83
2021/07/06 05:24:17;;;;;;;0.95;0.77;;;20.20;99.90;;;21.32;100.00;99892.81;3464347;40;101035;-83
2021/07/06 05:26:44;;;;;;;1.20;0.80;;;21.20;99.90;;;21.40;100.00;99896.00;3464537;39;100814;-82
2021/07/06 05:29:11;;;;;;;0.90;0.90;;;21.00;99.90;;;21.87;100.00;99898.66;3497403;39;100412;-84
2021/07/06 05:31:39;;;;;;;0.93;0.80;;;21.30;99.90;;;22.15;100.00;99901.41;3497942;39;103305;-82
2021/07/06 05:34:06;;;;;;;1.30;1.02;;;20.70;99.90;;;21.76;100.00;99886.69;3506730;39;102823;-82
2021/07/06 05:36:32;;;;;;;0.73;0.63;;;21.00;99.90;;;21.71;100.00;99892.06;3469737;39;100110;-83
2021/07/06 05:39:01;;;;;;;2.75;0.93;;;21.10;99.90;;;22.23;100.00;99905.66;3466059;40;99925;-83
2021/07/06 05:41:28;;;;;;;0.50;0.50;;;21.20;99.90;;;22.23;100.00;99900.22;3465474;40;100675;-83
2021/07/06 05:43:55;;;;;;;0.50;0.50;;;21.40;99.90;;;22.04;100.00;99893.28;3466648;40;101286;-84
2021/07/06 05:46:22;;;;;;;0.65;0.55;;;22.30;99.90;;;22.80;100.00;99892.81;3497713;39;102658;-82
2021/07/06 05:48:50;;;;;;;6.78;0.95;;;21.70;99.90;;;22.46;100.00;99904.72;3464894;40;100242;-82
2021/07/06 05:51:17;;;;;;;0.75;0.75;;;21.80;99.90;;;22.45;100.00;99903.91;3467202;40;100924;-83
2021/07/06 05:53:47;;;;;;;0.38;0.38;;;22.00;99.90;;;22.34;100.00;99896.59;3467232;40;101136;-82
2021/07/06 05:56:16;;;;;;;1.00;0.68;;;22.50;99.90;;;22.52;100.00;99896.38;3498265;39;102964;-83
2021/07/06 05:58:43;;;;;;;0.50;0.50;;;22.70;99.90;;;22.46;100.00;99891.94;3482711;39;100211;-82
2021/07/06 06:01:10;;;;;;;0.73;0.68;;;22.40;99.90;;;22.84;100.00;99888.53;3507773;39;102599;-81
2021/07/06 06:03:37;;;;;;;1.05;0.50;;;22.70;99.90;;;22.83;100.00;99888.78;3517484;39;101521;-81
2021/07/06 06:06:04;;;;;;;0.75;0.60;;;22.60;99.90;;;23.27;100.00;99881.53;3516935;39;100440;-80
2021/07/06 06:08:31;;;;;;;0.75;0.55;;;23.80;99.90;;;23.28;100.00;99883.19;3517355;39;100383;-82
2021/07/06 06:10:58;;;;;;;0.60;0.40;;;23.00;99.90;;;23.04;100.00;99871.63;3515511;39;102710;-83
2021/07/06 06:13:27;;;;;;;0.30;0.30;;;23.10;99.90;;;23.29;100.00;99873.91;3503248;39;102893;-82
2021/07/06 06:15:54;;;;;;;0.50;0.50;;;24.00;99.90;;;23.22;100.00;99876.84;3513314;39;102477;-83
2021/07/06 06:18:21;;;;;;;0.40;0.40;;;23.30;99.90;;;23.68;100.00;99868.47;3508115;39;100303;-84
2021/07/06 06:20:48;;;;;;;0.50;0.40;;;23.20;99.90;;;23.53;100.00;99867.19;3518569;39;101307;-83
2021/07/06 06:23:16;;;;;;;0.40;0.40;;;23.60;99.60;;;23.88;100.00;99869.53;3515280;39;102695;-83
2021/07/06 06:25:43;;;;;;;0.82;0.65;;;24.70;99.80;;;24.23;100.00;99871.06;3516968;39;100888;-83
2021/07/06 06:28:10;;;;;;;0.38;0.38;;;23.40;99.10;;;23.71;100.00;99852.41;3508135;39;100204;-83
2021/07/06 06:30:38;;;;;;;0.63;0.63;;;24.10;97.70;;;24.03;100.00;99852.50;3516385;39;101117;-83
2021/07/06 06:33:05;;;;;;;0.70;0.70;;;24.30;97.00;;;24.04;100.00;99854.13;3505588;39;102910;-81
2021/07/06 06:35:32;;;;;;;1.13;0.30;;;24.30;96.20;;;24.41;100.00;99851.53;3516827;39;100208;-83
2021/07/06 06:37:59;;;;;;;0.75;0.50;;;24.40;96.10;;;24.38;100.00;99848.50;3505929;39;100226;-82
2021/07/06 06:40:26;;;;;;;3.60;0.60;;;24.60;95.70;;;24.90;100.00;99843.19;3517238;39;100826;-83
2021/07/06 06:42:53;;;;;;;0.47;0.40;;;24.60;94.90;;;24.26;100.00;99849.47;3507754;39;103023;-82
2021/07/06 06:45:20;;;;;;;1.65;0.47;;;25.40;94.00;;;24.63;100.00;99851.47;3517454;39;100250;-84
2021/07/06 06:47:48;;;;;;;0.55;0.55;;;24.90;93.10;;;24.43;100.00;99848.56;3517474;39;100274;-81
2021/07/06 06:50:16;;;;;;;0.85;0.63;;;25.00;92.00;;;24.38;100.00;99845.75;3506825;39;102808;-84
2021/07/06 06:52:44;;;;;;;0.60;0.50;;;25.20;91.30;;;24.45;100.00;99854.59;3520063;39;101363;-85
2021/07/06 06:55:11;;;;;;;0.43;0.32;;;25.30;90.80;;;24.69;100.00;99839.50;3518204;39;100226;-83
2021/07/06 06:57:38;;;;;;;0.30;0.30;;;25.20;90.50;;;24.60;100.00;99838.31;3516266;39;100519;-82
2021/07/06 07:00:10;;;;;;;0.82;0.60;;;26.30;90.30;;;24.84;100.00;99833.31;3516419;39;100999;-82
2021/07/06 07:02:39;;;;;;;0.30;0.30;;;25.40;90.10;;;24.68;100.00;99840.56;3514916;39;100946;-81
2021/07/06 07:05:09;;;;;;;0.30;0.30;;;25.80;89.60;;;24.87;100.00;99850.00;3506359;39;103119;-81
2021/07/06 07:07:36;;;;;;;0.50;0.50;;;25.60;88.20;;;24.94;100.00;99842.44;3516036;39;100138;-80
2021/07/06 07:10:04;;;;;;;0.65;0.40;;;25.70;86.90;;;25.16;100.00;99836.84;3516277;39;101218;-82
2021/07/06 07:12:31;;;;;;;1.20;0.50;;;25.80;85.40;;;25.51;100.00;99836.19;3515408;39;101121;-81
2021/07/06 07:14:58;;;;;;;0.47;0.30;;;25.90;85.50;;;25.53;100.00;99823.06;3515964;39;100321;-81
2021/07/06 07:17:25;;;;;;;0.80;0.50;;;26.30;84.90;;;25.02;100.00;99830.19;3505895;39;100317;-81
2021/07/06 07:19:52;;;;;;;0.28;0.28;;;26.40;81.80;;;25.27;100.00;99821.28;3515175;39;101106;-82
2021/07/06 07:22:20;;;;;;;0.20;0.20;;;27.20;81.90;;;24.92;100.00;99816.41;3505876;39;103299;-81
2021/07/06 07:24:48;;;;;;;0.30;0.30;;;26.80;78.50;;;24.70;100.00;99813.78;3516104;39;100344;-80
2021/07/06 07:27:15;;;;;;;0.25;0.25;;;26.50;76.10;;;24.90;100.00;99811.19;3515728;39;100199;-84
2021/07/06 07:29:48;;;;;;;0.50;0.40;;;27.30;76.00;;;25.29;100.00;99821.84;3515609;39;101194;-81
2021/07/06 07:32:15;;;;;;;0.20;0.20;;;27.00;76.30;;;24.70;100.00;99820.06;3505657;39;103681;-81
2021/07/06 07:34:43;;;;;;;0.40;0.40;;;26.40;72.90;;;25.26;100.00;99816.91;3516783;39;100882;-81
2021/07/06 07:37:10;;;;;;;0.20;0.20;;;27.30;74.90;;;25.88;100.00;99824.31;3532725;39;99946;-83
2021/07/06 07:39:40;;;;;;;0.90;0.28;;;26.80;73.30;;;25.41;100.00;99809.59;3516611;39;101245;-83
2021/07/06 07:42:07;;;;;;;0.22;0.20;;;27.00;70.00;;;25.47;100.00;99809.63;3506106;39;103223;-81
2021/07/06 07:44:34;;;;;;;0.20;0.20;;;27.00;70.50;;;25.57;100.00;99815.16;3505573;39;102615;-81
2021/07/06 07:47:01;;;;;;;0.20;0.20;;;27.10;70.40;;;26.09;100.00;99815.03;3506440;39;100299;-83
2021/07/06 07:49:28;;;;;;;0.20;0.20;;;27.20;70.30;;;25.66;100.00;99810.81;3515973;39;101067;-82
2021/07/06 07:51:56;;;;;;;0.52;0.40;;;27.40;69.00;;;25.71;100.00;99814.41;3506191;39;103349;-82
2021/07/06 07:54:23;;;;;;;0.10;0.10;;;27.50;68.40;;;25.74;100.00;99811.13;3515944;39;100441;-83
2021/07/06 07:56:51;;;;;;;0.00;0.00;;;27.50;67.10;;;26.24;100.00;99817.81;3515712;39;99974;-83
2021/07/06 07:59:18;;;;;;;0.75;0.25;;;27.60;66.10;;;25.96;100.00;99812.84;3515294;39;100650;-82
2021/07/06 08:01:45;;;;;;;0.17;0.17;;;27.70;61.50;;;26.04;100.00;99809.56;3515110;39;101034;-83
2021/07/06 08:04:12;;;;;;;0.05;0.05;;;27.80;60.60;;;26.21;100.00;99809.31;3515989;39;100594;-82
2021/07/06 08:06:39;;;;;;;1.38;0.32;;;27.80;61.00;;;26.27;100.00;99805.47;3505920;39;100070;-82
2021/07/06 08:09:07;;;;;;;0.60;0.20;;;27.90;60.90;;;26.26;100.00;99801.09;3508535;39;100919;-81
2021/07/06 08:11:35;;;;;;;0.10;0.00;;;28.00;60.90;;;26.19;100.00;99798.63;3505379;39;101076;-81
2021/07/06 08:14:03;;;;;;;0.35;0.10;;;28.10;61.00;;;25.86;100.00;99799.09;3520613;39;100724;-82
2021/07/06 08:16:30;;;;;;;0.52;0.40;;;28.30;59.70;;;26.37;100.00;99802.78;3525318;39;100082;-81
2021/07/06 08:18:57;;;;;;;0.30;0.20;;;28.20;60.50;;;26.44;100.00;99804.16;3505745;39;103072;-82
2021/07/06 08:21:24;;;;;;;2.22;0.17;;;28.40;59.90;;;26.19;100.00;99803.28;3515879;39;101070;-82
2021/07/06 08:23:51;;;;;;;0.10;0.10;;;28.10;58.90;;;27.11;100.00;99803.00;3515839;39;100975;-84
2021/07/06 08:26:19;;;;;;;0.15;0.15;;;28.90;59.50;;;27.20;100.00;99805.19;3515783;39;99946;-82
2021/07/06 08:28:46;;;;;;;0.32;0.13;;;28.60;59.10;;;27.31;100.00;99793.06;3515904;39;100091;-80
2021/07/06 08:31:15;;;;;;;0.10;0.10;;;28.70;57.70;;;27.50;100.00;99792.16;3515453;39;101209;-80
2021/07/06 08:33:42;;;;;;;0.10;0.10;;;29.00;57.00;;;27.13;100.00;99811.78;3516267;39;100944;-82
2021/07/06 08:36:09;;;;;;;0.15;0.10;;;29.00;56.60;;;27.23;100.00;99810.09;3516329;39;100072;-80
2021/07/06 08:38:39;;;;;;;0.80;0.30;;;29.00;56.20;;;27.65;100.00;99793.22;3505493;39;103649;-81
2021/07/06 08:41:07;;;;;;;0.20;0.20;;;29.10;56.40;;;27.67;100.00;99793.78;3517357;39;100786;-83
2021/07/06 08:43:34;;;;;;;0.57;0.30;;;29.80;56.80;;;27.24;100.00;99796.09;3515374;39;100416;-81
2021/07/06 08:46:04;;;;;;;0.20;0.17;;;28.60;55.70;;;26.27;100.00;99800.81;3516353;39;100295;-82
2021/07/06 08:48:34;;;;;;;0.30;0.30;;;29.50;54.80;;;27.48;100.00;99779.81;3515257;39;101078;-82
2021/07/06 08:51:04;;;;;;;0.20;0.20;;;29.40;55.10;;;27.44;100.00;99785.06;3516126;39;101259;-82
2021/07/06 08:53:31;;;;;;;0.20;0.20;;;29.60;55.60;;;26.64;100.00;99777.81;3515886;39;99950;-84
2021/07/06 08:55:58;;;;;;;0.25;0.25;;;29.70;54.60;;;27.46;100.00;99768.25;3516648;39;100252;-82
2021/07/06 08:58:26;;;;;;;0.32;0.10;;;30.30;55.40;;;26.73;100.00;99776.97;3530624;39;101412;-82
2021/07/06 09:00:53;;;;;;;0.30;0.30;;;29.60;54.00;;;26.72;100.00;99769.81;3527147;39;101090;-82
2021/07/06 09:03:20;;;;;;;0.10;0.10;;;29.30;53.20;;;26.53;100.00;99770.69;3516230;39;100195;-81
2021/07/06 09:06:06;;;;;;;0.00;0.00;;;29.70;52.40;;;27.77;100.00;99783.53;3505478;39;100352;-82
2021/07/06 09:08:33;;;;;;;0.10;0.10;;;29.40;53.20;;;26.92;100.00;99768.16;3515534;39;101009;-83
2021/07/06 09:11:14;;;;;;;0.22;0.20;;;29.30;52.50;;;26.63;100.00;99776.97;3516167;39;100956;-83
2021/07/06 09:13:41;;;;;;;0.30;0.30;;;29.90;52.90;;;27.37;100.00;99769.97;3515777;39;100748;-80
2021/07/06 09:16:08;;;;;;;0.10;0.10;;;29.30;53.90;;;27.29;100.00;99773.31;3514432;39;100014;-83
2021/07/06 09:18:35;;;;;;;0.55;0.20;;;29.70;53.90;;;27.30;100.00;99777.69;3516389;39;100793;-82
2021/07/06 09:21:08;;;;;;;0.43;0.30;;;29.30;53.30;;;27.04;100.00;99768.72;3508972;39;100901;-82
2021/07/06 09:23:39;;;;;;;0.20;0.20;;;29.30;52.70;;;27.20;100.00;99772.25;3515704;39;100083;-82
2021/07/06 09:26:19;;;;;;;0.32;0.32;;;29.30;53.70;;;27.07;100.00;99765.41;3516231;39;99992;-82
2021/07/06 09:28:50;;;;;;;0.10;0.10;;;29.40;53.00;;;27.87;100.00;99761.50;3516121;39;101188;-81
2021/07/06 09:31:27;;;;;;;0.20;0.20;;;29.40;53.20;;;27.62;100.00;99769.88;3515710;39;101238;-82
2021/07/06 09:34:02;;;;;;;0.30;0.30;;;29.60;53.30;;;27.15;100.00;99768.41;3505340;39;102627;-82
2021/07/06 09:36:35;;;;;;;0.13;0.13;;;29.90;51.60;;;27.04;100.00;99764.03;3510521;39;100071;-83
2021/07/06 09:39:08;;;;;;;0.55;0.47;;;29.80;49.90;;;27.42;100.00;99759.78;3515207;39;102492;-80
2021/07/06 09:41:36;;;;;;;0.30;0.30;;;29.70;51.30;;;27.68;100.00;99756.94;3515955;39;100988;-81
2021/07/06 09:44:23;;;;;;;0.25;0.25;;;29.70;51.60;;;27.74;100.00;99758.53;3504859;39;102251;-82
2021/07/06 09:46:56;;;;;;;0.30;0.30;;;29.80;50.80;;;28.29;100.00;99751.88;3514784;39;100320;-82
2021/07/06 09:49:26;;;;;;;0.08;0.08;;;30.00;51.30;;;27.48;100.00;99750.41;3515128;39;101046;-80
2021/07/06 09:51:54;;;;;;;0.20;0.20;;;29.90;50.80;;;27.85;100.00;99746.38;3514977;39;101499;-83
2021/07/06 09:54:36;;;;;;;0.15;0.13;;;30.40;51.80;;;28.20;100.00;99751.66;3506075;39;100451;-82
2021/07/06 09:57:20;;;;;;;0.17;0.17;;;30.10;51.50;;;28.46;100.00;99748.69;3505316;39;100182;-82
2021/07/06 10:00:00;;;;;;;0.20;0.20;;;30.20;51.20;;;28.73;100.00;99737.16;3514065;39;101343;-82
2021/07/06 10:02:29;;;;;;;0.20;0.20;;;30.20;50.40;;;28.73;100.00;99734.41;3514918;39;101111;-83
2021/07/06 10:04:59;;;;;;;1.33;0.85;;;30.30;50.10;;;28.75;100.00;99734.94;3514901;39;100716;-82
2021/07/06 10:07:28;;;;;;;0.20;0.20;;;30.30;49.80;;;28.98;100.00;99722.31;3504753;39;100301;-81